sensor_id;sensor_type;location;lat;lon;timestamp;temperature;humidity
16114;DHT22;8161;-33.910;151.156;2024-02-21T00:04:20;26.10;99.90
16114;DHT22;8161;-33.910;151.156;2024-02-21T00:09:14;25.80;99.90
16114;DHT22;8161;-33.910;151.156;2024-02-21T00:11:41;26.30;99.90
16114;DHT22;8161;-33.910;151.156;2024-02-21T00:14:09;26.30;99.90
16114;DHT22;8161;-33.910;151.156;2024-02-21T00:16:36;26.40;99.90
16114;DHT22;8161;-33.910;151.156;2024-02-21T00:19:03;26.50;99.90
16114;DHT22;8161;-33.910;151.156;2024-02-21T00:21:31;26.70;99.90
16114;DHT22;8161;-33.910;151.156;2024-02-21T00:23:58;26.90;99.90
16114;DHT22;8161;-33.910;151.156;2024-02-21T00:26:25;27.10;99.90
16114;DHT22;8161;-33.910;151.156;2024-02-21T00:28:53;27.20;99.90
16114;DHT22;8161;-33.910;151.156;2024-02-21T00:31:20;27.30;99.90
16114;DHT22;8161;-33.910;151.156;2024-02-21T00:33:47;27.40;99.90
16114;DHT22;8161;-33.910;151.156;2024-02-21T00:36:14;27.40;99.90
16114;DHT22;8161;-33.910;151.156;2024-02-21T00:38:42;27.40;99.90
16114;DHT22;8161;-33.910;151.156;2024-02-21T00:41:09;27.40;99.90
16114;DHT22;8161;-33.910;151.156;2024-02-21T00:43:36;27.60;99.90
16114;DHT22;8161;-33.910;151.156;2024-02-21T00:46:06;27.70;99.90
16114;DHT22;8161;-33.910;151.156;2024-02-21T00:51:01;27.70;99.90
16114;DHT22;8161;-33.910;151.156;2024-02-21T00:53:28;27.70;99.90
16114;DHT22;8161;-33.910;151.156;2024-02-21T00:55:55;27.80;99.90
16114;DHT22;8161;-33.910;151.156;2024-02-21T00:58:23;27.80;99.90
16114;DHT22;8161;-33.910;151.156;2024-02-21T01:00:50;27.90;99.90
16114;DHT22;8161;-33.910;151.156;2024-02-21T01:03:18;27.80;99.90
16114;DHT22;8161;-33.910;151.156;2024-02-21T01:05:45;27.40;99.90
16114;DHT22;8161;-33.910;151.156;2024-02-21T01:10:39;27.20;99.90
16114;DHT22;8161;-33.910;151.156;2024-02-21T01:15:34;27.10;99.90
16114;DHT22;8161;-33.910;151.156;2024-02-21T01:18:02;27.50;99.90
16114;DHT22;8161;-33.910;151.156;2024-02-21T01:20:29;27.10;99.90
16114;DHT22;8161;-33.910;151.156;2024-02-21T01:22:56;27.20;99.90
16114;DHT22;8161;-33.910;151.156;2024-02-21T01:27:54;27.20;99.90
16114;DHT22;8161;-33.910;151.156;2024-02-21T01:30:21;27.20;99.90
16114;DHT22;8161;-33.910;151.156;2024-02-21T01:32:48;27.30;99.90
16114;DHT22;8161;-33.910;151.156;2024-02-21T01:35:15;27.30;99.90
16114;DHT22;8161;-33.910;151.156;2024-02-21T01:37:42;27.50;99.90
16114;DHT22;8161;-33.910;151.156;2024-02-21T01:40:10;27.40;99.90
16114;DHT22;8161;-33.910;151.156;2024-02-21T01:42:40;27.50;99.90
16114;DHT22;8161;-33.910;151.156;2024-02-21T01:45:08;27.90;99.90
16114;DHT22;8161;-33.910;151.156;2024-02-21T01:47:36;27.70;99.90
16114;DHT22;8161;-33.910;151.156;2024-02-21T01:50:04;27.60;99.90
16114;DHT22;8161;-33.910;151.156;2024-02-21T01:52:32;27.40;99.90
16114;DHT22;8161;-33.910;151.156;2024-02-21T01:59:55;27.30;99.90
16114;DHT22;8161;-33.910;151.156;2024-02-21T02:02:23;27.20;99.90
16114;DHT22;8161;-33.910;151.156;2024-02-21T02:04:51;26.80;99.90
16114;DHT22;8161;-33.910;151.156;2024-02-21T02:07:19;27.00;99.90
16114;DHT22;8161;-33.910;151.156;2024-02-21T02:12:13;27.00;99.90
16114;DHT22;8161;-33.910;151.156;2024-02-21T02:14:40;26.90;99.90
16114;DHT22;8161;-33.910;151.156;2024-02-21T02:17:08;27.00;99.90
16114;DHT22;8161;-33.910;151.156;2024-02-21T02:19:36;26.90;99.90
16114;DHT22;8161;-33.910;151.156;2024-02-21T02:22:12;27.00;99.90
16114;DHT22;8161;-33.910;151.156;2024-02-21T02:24:41;26.80;99.90
16114;DHT22;8161;-33.910;151.156;2024-02-21T02:27:09;26.90;99.90
16114;DHT22;8161;-33.910;151.156;2024-02-21T02:32:03;27.20;99.90
16114;DHT22;8161;-33.910;151.156;2024-02-21T02:34:30;27.30;99.90
16114;DHT22;8161;-33.910;151.156;2024-02-21T02:36:58;27.60;99.90
16114;DHT22;8161;-33.910;151.156;2024-02-21T02:41:52;27.60;99.90
16114;DHT22;8161;-33.910;151.156;2024-02-21T02:44:19;27.60;99.90
16114;DHT22;8161;-33.910;151.156;2024-02-21T02:46:46;27.60;99.90
16114;DHT22;8161;-33.910;151.156;2024-02-21T02:49:14;27.80;99.90
16114;DHT22;8161;-33.910;151.156;2024-02-21T02:51:45;27.70;99.90
16114;DHT22;8161;-33.910;151.156;2024-02-21T02:54:12;27.80;99.90
16114;DHT22;8161;-33.910;151.156;2024-02-21T02:56:39;27.70;99.90
16114;DHT22;8161;-33.910;151.156;2024-02-21T02:59:07;28.00;99.90
16114;DHT22;8161;-33.910;151.156;2024-02-21T03:01:35;28.20;99.90
16114;DHT22;8161;-33.910;151.156;2024-02-21T03:04:02;28.40;99.90
16114;DHT22;8161;-33.910;151.156;2024-02-21T03:06:29;28.50;99.90
16114;DHT22;8161;-33.910;151.156;2024-02-21T03:08:57;28.60;99.90
16114;DHT22;8161;-33.910;151.156;2024-02-21T03:11:24;28.50;99.90
16114;DHT22;8161;-33.910;151.156;2024-02-21T03:13:56;28.50;99.90
16114;DHT22;8161;-33.910;151.156;2024-02-21T03:18:53;28.60;99.90
16114;DHT22;8161;-33.910;151.156;2024-02-21T03:23:47;28.80;99.90
16114;DHT22;8161;-33.910;151.156;2024-02-21T03:28:44;28.80;99.90
16114;DHT22;8161;-33.910;151.156;2024-02-21T03:31:14;28.70;99.90
16114;DHT22;8161;-33.910;151.156;2024-02-21T03:33:43;28.80;99.90
16114;DHT22;8161;-33.910;151.156;2024-02-21T03:36:16;28.80;99.90
16114;DHT22;8161;-33.910;151.156;2024-02-21T03:38:43;29.10;99.90
16114;DHT22;8161;-33.910;151.156;2024-02-21T03:41:11;28.80;99.90
16114;DHT22;8161;-33.910;151.156;2024-02-21T03:43:39;28.80;99.90
16114;DHT22;8161;-33.910;151.156;2024-02-21T03:46:06;28.70;99.90
16114;DHT22;8161;-33.910;151.156;2024-02-21T03:48:33;28.80;99.90
16114;DHT22;8161;-33.910;151.156;2024-02-21T03:51:01;29.00;99.90
16114;DHT22;8161;-33.910;151.156;2024-02-21T03:53:28;28.80;99.90
16114;DHT22;8161;-33.910;151.156;2024-02-21T03:55:56;28.90;99.90
16114;DHT22;8161;-33.910;151.156;2024-02-21T03:58:26;28.80;99.90
16114;DHT22;8161;-33.910;151.156;2024-02-21T04:00:53;28.70;99.90
16114;DHT22;8161;-33.910;151.156;2024-02-21T04:03:20;29.00;99.90
16114;DHT22;8161;-33.910;151.156;2024-02-21T04:05:48;28.90;99.90
16114;DHT22;8161;-33.910;151.156;2024-02-21T04:08:15;28.80;99.90
16114;DHT22;8161;-33.910;151.156;2024-02-21T04:10:42;28.60;99.90
16114;DHT22;8161;-33.910;151.156;2024-02-21T04:13:10;28.50;99.90
16114;DHT22;8161;-33.910;151.156;2024-02-21T04:15:37;28.40;99.90
16114;DHT22;8161;-33.910;151.156;2024-02-21T04:20:32;28.20;99.90
16114;DHT22;8161;-33.910;151.156;2024-02-21T04:22:59;28.30;99.90
16114;DHT22;8161;-33.910;151.156;2024-02-21T04:25:26;28.40;99.90
16114;DHT22;8161;-33.910;151.156;2024-02-21T04:27:54;28.30;99.90
16114;DHT22;8161;-33.910;151.156;2024-02-21T04:32:48;28.00;99.90
16114;DHT22;8161;-33.910;151.156;2024-02-21T04:37:48;27.90;99.90
16114;DHT22;8161;-33.910;151.156;2024-02-21T04:40:16;28.50;99.90
16114;DHT22;8161;-33.910;151.156;2024-02-21T04:42:43;28.00;99.90
16114;DHT22;8161;-33.910;151.156;2024-02-21T04:45:11;27.90;99.90
16114;DHT22;8161;-33.910;151.156;2024-02-21T04:47:38;28.00;99.90
16114;DHT22;8161;-33.910;151.156;2024-02-21T04:50:06;27.70;99.90
16114;DHT22;8161;-33.910;151.156;2024-02-21T04:55:00;27.90;99.90
16114;DHT22;8161;-33.910;151.156;2024-02-21T04:57:27;28.00;99.90
16114;DHT22;8161;-33.910;151.156;2024-02-21T04:59:57;28.10;99.90
16114;DHT22;8161;-33.910;151.156;2024-02-21T05:02:25;28.20;99.90
16114;DHT22;8161;-33.910;151.156;2024-02-21T05:04:53;28.40;99.90
16114;DHT22;8161;-33.910;151.156;2024-02-21T05:07:20;28.40;99.90
16114;DHT22;8161;-33.910;151.156;2024-02-21T05:09:48;28.40;99.90
16114;DHT22;8161;-33.910;151.156;2024-02-21T05:12:15;28.30;99.90
16114;DHT22;8161;-33.910;151.156;2024-02-21T05:14:42;28.20;99.90
16114;DHT22;8161;-33.910;151.156;2024-02-21T05:17:10;28.20;99.90
16114;DHT22;8161;-33.910;151.156;2024-02-21T05:22:04;27.90;99.90
16114;DHT22;8161;-33.910;151.156;2024-02-21T05:24:32;28.20;99.90
16114;DHT22;8161;-33.910;151.156;2024-02-21T05:26:59;28.10;99.90
16114;DHT22;8161;-33.910;151.156;2024-02-21T05:31:56;28.30;99.90
16114;DHT22;8161;-33.910;151.156;2024-02-21T05:36:52;27.90;99.90
16114;DHT22;8161;-33.910;151.156;2024-02-21T05:39:19;27.80;99.90
16114;DHT22;8161;-33.910;151.156;2024-02-21T05:44:19;28.00;99.90
16114;DHT22;8161;-33.910;151.156;2024-02-21T05:49:15;27.80;99.90
16114;DHT22;8161;-33.910;151.156;2024-02-21T05:56:37;27.90;99.90
16114;DHT22;8161;-33.910;151.156;2024-02-21T05:59:04;28.20;99.90
16114;DHT22;8161;-33.910;151.156;2024-02-21T06:01:31;28.40;99.90
16114;DHT22;8161;-33.910;151.156;2024-02-21T06:03:58;28.50;99.90
16114;DHT22;8161;-33.910;151.156;2024-02-21T06:06:26;28.50;99.90
16114;DHT22;8161;-33.910;151.156;2024-02-21T06:11:20;28.50;99.90
16114;DHT22;8161;-33.910;151.156;2024-02-21T06:13:47;28.30;99.90
16114;DHT22;8161;-33.910;151.156;2024-02-21T06:16:15;28.30;99.90
16114;DHT22;8161;-33.910;151.156;2024-02-21T06:18:43;28.20;99.90
16114;DHT22;8161;-33.910;151.156;2024-02-21T06:28:33;28.70;99.90
16114;DHT22;8161;-33.910;151.156;2024-02-21T06:31:00;28.70;99.90
16114;DHT22;8161;-33.910;151.156;2024-02-21T06:33:27;28.50;99.90
16114;DHT22;8161;-33.910;151.156;2024-02-21T06:38:22;28.30;99.90
16114;DHT22;8161;-33.910;151.156;2024-02-21T06:40:49;28.70;99.90
16114;DHT22;8161;-33.910;151.156;2024-02-21T06:43:19;28.00;99.90
16114;DHT22;8161;-33.910;151.156;2024-02-21T06:48:17;27.70;99.90
16114;DHT22;8161;-33.910;151.156;2024-02-21T06:50:45;27.60;99.90
16114;DHT22;8161;-33.910;151.156;2024-02-21T06:53:13;27.70;99.90
16114;DHT22;8161;-33.910;151.156;2024-02-21T06:58:07;27.40;99.90
16114;DHT22;8161;-33.910;151.156;2024-02-21T07:00:39;27.40;99.90
16114;DHT22;8161;-33.910;151.156;2024-02-21T07:03:06;27.30;99.90
16114;DHT22;8161;-33.910;151.156;2024-02-21T07:05:34;27.50;99.90
16114;DHT22;8161;-33.910;151.156;2024-02-21T07:08:01;27.60;99.90
16114;DHT22;8161;-33.910;151.156;2024-02-21T07:12:57;27.80;99.90
16114;DHT22;8161;-33.910;151.156;2024-02-21T07:15:24;27.80;99.90
16114;DHT22;8161;-33.910;151.156;2024-02-21T07:17:53;28.10;99.90
16114;DHT22;8161;-33.910;151.156;2024-02-21T07:20:20;28.10;99.90
16114;DHT22;8161;-33.910;151.156;2024-02-21T07:25:15;28.20;99.90
16114;DHT22;8161;-33.910;151.156;2024-02-21T07:27:43;28.30;99.90
16114;DHT22;8161;-33.910;151.156;2024-02-21T07:32:38;28.80;99.90
16114;DHT22;8161;-33.910;151.156;2024-02-21T07:35:06;28.50;99.90
16114;DHT22;8161;-33.910;151.156;2024-02-21T07:37:37;28.20;99.90
16114;DHT22;8161;-33.910;151.156;2024-02-21T07:40:06;28.50;99.90
16114;DHT22;8161;-33.910;151.156;2024-02-21T07:42:39;28.60;99.90
16114;DHT22;8161;-33.910;151.156;2024-02-21T07:45:09;28.60;99.90
16114;DHT22;8161;-33.910;151.156;2024-02-21T07:47:37;28.10;99.90
16114;DHT22;8161;-33.910;151.156;2024-02-21T07:50:05;27.70;99.90
16114;DHT22;8161;-33.910;151.156;2024-02-21T07:52:33;27.50;99.90
16114;DHT22;8161;-33.910;151.156;2024-02-21T07:55:01;27.20;99.90
16114;DHT22;8161;-33.910;151.156;2024-02-21T08:07:17;26.50;99.90
16114;DHT22;8161;-33.910;151.156;2024-02-21T08:17:06;26.20;99.90
16114;DHT22;8161;-33.910;151.156;2024-02-21T08:19:33;26.00;99.90
16114;DHT22;8161;-33.910;151.156;2024-02-21T08:22:00;26.20;99.90
16114;DHT22;8161;-33.910;151.156;2024-02-21T08:24:28;25.90;99.90
16114;DHT22;8161;-33.910;151.156;2024-02-21T08:26:55;25.80;99.90
16114;DHT22;8161;-33.910;151.156;2024-02-21T08:29:22;25.70;99.90
16114;DHT22;8161;-33.910;151.156;2024-02-21T08:36:44;25.40;99.90
16114;DHT22;8161;-33.910;151.156;2024-02-21T08:39:12;25.60;99.90
16114;DHT22;8161;-33.910;151.156;2024-02-21T08:41:43;25.50;99.90
16114;DHT22;8161;-33.910;151.156;2024-02-21T08:44:10;25.30;99.90
16114;DHT22;8161;-33.910;151.156;2024-02-21T08:46:37;25.40;99.90
16114;DHT22;8161;-33.910;151.156;2024-02-21T08:49:07;25.30;99.90
16114;DHT22;8161;-33.910;151.156;2024-02-21T08:51:37;25.40;99.90
16114;DHT22;8161;-33.910;151.156;2024-02-21T08:56:31;25.10;99.90
16114;DHT22;8161;-33.910;151.156;2024-02-21T08:58:59;25.10;99.90
16114;DHT22;8161;-33.910;151.156;2024-02-21T09:01:29;24.90;99.90
16114;DHT22;8161;-33.910;151.156;2024-02-21T09:03:57;25.00;99.90
16114;DHT22;8161;-33.910;151.156;2024-02-21T09:13:46;24.80;99.90
16114;DHT22;8161;-33.910;151.156;2024-02-21T09:18:41;24.80;99.90
16114;DHT22;8161;-33.910;151.156;2024-02-21T09:28:31;24.70;99.90
16114;DHT22;8161;-33.910;151.156;2024-02-21T09:30:59;24.50;99.90
16114;DHT22;8161;-33.910;151.156;2024-02-21T09:33:26;24.60;99.90
16114;DHT22;8161;-33.910;151.156;2024-02-21T09:40:53;25.10;99.90
16114;DHT22;8161;-33.910;151.156;2024-02-21T09:43:26;24.80;99.90
16114;DHT22;8161;-33.910;151.156;2024-02-21T09:45:55;24.50;99.90
16114;DHT22;8161;-33.910;151.156;2024-02-21T09:51:19;24.50;99.90
16114;DHT22;8161;-33.910;151.156;2024-02-21T09:53:48;24.50;99.90
16114;DHT22;8161;-33.910;151.156;2024-02-21T09:56:16;24.40;99.90
16114;DHT22;8161;-33.910;151.156;2024-02-21T10:01:11;24.50;99.90
16114;DHT22;8161;-33.910;151.156;2024-02-21T10:03:38;24.60;99.90
16114;DHT22;8161;-33.910;151.156;2024-02-21T10:06:06;24.70;99.90
16114;DHT22;8161;-33.910;151.156;2024-02-21T10:08:33;24.30;99.90
16114;DHT22;8161;-33.910;151.156;2024-02-21T10:13:30;25.00;99.90
16114;DHT22;8161;-33.910;151.156;2024-02-21T10:16:07;24.60;99.90
16114;DHT22;8161;-33.910;151.156;2024-02-21T10:18:35;24.50;99.90
16114;DHT22;8161;-33.910;151.156;2024-02-21T10:21:07;24.30;99.90
16114;DHT22;8161;-33.910;151.156;2024-02-21T10:23:52;24.40;99.90
16114;DHT22;8161;-33.910;151.156;2024-02-21T10:26:20;24.20;99.90
16114;DHT22;8161;-33.910;151.156;2024-02-21T10:28:48;24.60;99.90
16114;DHT22;8161;-33.910;151.156;2024-02-21T10:31:28;24.20;99.90
16114;DHT22;8161;-33.910;151.156;2024-02-21T10:33:56;24.80;99.90
16114;DHT22;8161;-33.910;151.156;2024-02-21T10:38:52;24.20;99.90
16114;DHT22;8161;-33.910;151.156;2024-02-21T10:41:21;24.20;99.90
16114;DHT22;8161;-33.910;151.156;2024-02-21T10:43:52;24.50;99.90
16114;DHT22;8161;-33.910;151.156;2024-02-21T10:51:18;24.40;99.90
16114;DHT22;8161;-33.910;151.156;2024-02-21T10:56:31;24.20;99.90
16114;DHT22;8161;-33.910;151.156;2024-02-21T10:59:04;24.50;99.90
16114;DHT22;8161;-33.910;151.156;2024-02-21T11:01:32;24.00;99.90
16114;DHT22;8161;-33.910;151.156;2024-02-21T11:04:08;24.00;99.90
16114;DHT22;8161;-33.910;151.156;2024-02-21T11:09:09;24.10;99.90
16114;DHT22;8161;-33.910;151.156;2024-02-21T11:11:38;24.00;99.90
16114;DHT22;8161;-33.910;151.156;2024-02-21T11:16:38;23.90;99.90
16114;DHT22;8161;-33.910;151.156;2024-02-21T11:19:10;24.10;99.90
16114;DHT22;8161;-33.910;151.156;2024-02-21T11:21:45;24.00;99.90
16114;DHT22;8161;-33.910;151.156;2024-02-21T11:24:25;24.10;99.90
16114;DHT22;8161;-33.910;151.156;2024-02-21T11:26:52;23.90;99.90
16114;DHT22;8161;-33.910;151.156;2024-02-21T11:29:26;24.10;99.90
16114;DHT22;8161;-33.910;151.156;2024-02-21T11:31:53;23.70;99.90
16114;DHT22;8161;-33.910;151.156;2024-02-21T11:36:52;23.60;99.90
16114;DHT22;8161;-33.910;151.156;2024-02-21T11:39:24;23.70;99.90
16114;DHT22;8161;-33.910;151.156;2024-02-21T11:42:05;24.00;99.90
16114;DHT22;8161;-33.910;151.156;2024-02-21T11:47:05;23.50;99.90
16114;DHT22;8161;-33.910;151.156;2024-02-21T11:49:42;23.80;99.90
16114;DHT22;8161;-33.910;151.156;2024-02-21T11:52:10;23.80;99.90
16114;DHT22;8161;-33.910;151.156;2024-02-21T11:54:39;24.00;99.90
16114;DHT22;8161;-33.910;151.156;2024-02-21T11:57:06;23.60;99.90
16114;DHT22;8161;-33.910;151.156;2024-02-21T11:59:34;23.60;99.90
16114;DHT22;8161;-33.910;151.156;2024-02-21T12:02:01;23.70;99.90
16114;DHT22;8161;-33.910;151.156;2024-02-21T12:04:31;23.80;99.90
16114;DHT22;8161;-33.910;151.156;2024-02-21T12:06:59;23.60;99.90
16114;DHT22;8161;-33.910;151.156;2024-02-21T12:09:26;23.80;99.90
16114;DHT22;8161;-33.910;151.156;2024-02-21T12:12:03;23.70;99.90
16114;DHT22;8161;-33.910;151.156;2024-02-21T12:16:59;23.50;99.90
16114;DHT22;8161;-33.910;151.156;2024-02-21T12:19:30;23.70;99.90
16114;DHT22;8161;-33.910;151.156;2024-02-21T12:22:01;23.60;99.90
16114;DHT22;8161;-33.910;151.156;2024-02-21T12:24:32;23.40;99.90
16114;DHT22;8161;-33.910;151.156;2024-02-21T12:31:57;23.70;99.90
16114;DHT22;8161;-33.910;151.156;2024-02-21T12:34:24;23.30;99.90
16114;DHT22;8161;-33.910;151.156;2024-02-21T12:41:47;23.40;99.90
16114;DHT22;8161;-33.910;151.156;2024-02-21T12:44:14;23.50;99.90
16114;DHT22;8161;-33.910;151.156;2024-02-21T12:46:43;23.30;99.90
16114;DHT22;8161;-33.910;151.156;2024-02-21T12:49:11;23.40;99.90
16114;DHT22;8161;-33.910;151.156;2024-02-21T12:54:06;23.60;99.90
16114;DHT22;8161;-33.910;151.156;2024-02-21T12:56:33;23.40;99.90
16114;DHT22;8161;-33.910;151.156;2024-02-21T12:59:00;23.50;99.90
16114;DHT22;8161;-33.910;151.156;2024-02-21T13:01:27;23.40;99.90
16114;DHT22;8161;-33.910;151.156;2024-02-21T13:06:24;23.60;99.90
16114;DHT22;8161;-33.910;151.156;2024-02-21T13:08:51;23.10;99.90
16114;DHT22;8161;-33.910;151.156;2024-02-21T13:13:45;23.40;99.90
16114;DHT22;8161;-33.910;151.156;2024-02-21T13:16:13;23.00;99.90
16114;DHT22;8161;-33.910;151.156;2024-02-21T13:18:40;23.30;99.90
16114;DHT22;8161;-33.910;151.156;2024-02-21T13:21:09;23.20;99.90
16114;DHT22;8161;-33.910;151.156;2024-02-21T13:23:37;22.80;99.90
16114;DHT22;8161;-33.910;151.156;2024-02-21T13:26:04;23.10;99.90
16114;DHT22;8161;-33.910;151.156;2024-02-21T13:28:32;23.00;99.90
16114;DHT22;8161;-33.910;151.156;2024-02-21T13:30:59;22.70;99.90
16114;DHT22;8161;-33.910;151.156;2024-02-21T13:33:26;23.20;99.90
16114;DHT22;8161;-33.910;151.156;2024-02-21T13:35:55;23.00;99.90
16114;DHT22;8161;-33.910;151.156;2024-02-21T13:43:17;23.00;99.90
16114;DHT22;8161;-33.910;151.156;2024-02-21T13:45:56;22.50;99.90
16114;DHT22;8161;-33.910;151.156;2024-02-21T13:48:25;22.80;99.90
16114;DHT22;8161;-33.910;151.156;2024-02-21T13:50:53;22.60;99.90
16114;DHT22;8161;-33.910;151.156;2024-02-21T13:53:21;23.10;99.90
16114;DHT22;8161;-33.910;151.156;2024-02-21T13:55:49;22.50;99.90
16114;DHT22;8161;-33.910;151.156;2024-02-21T13:58:17;22.60;99.90
16114;DHT22;8161;-33.910;151.156;2024-02-21T14:03:11;22.50;99.90
16114;DHT22;8161;-33.910;151.156;2024-02-21T14:05:39;22.90;99.90
16114;DHT22;8161;-33.910;151.156;2024-02-21T14:08:07;22.60;99.90
16114;DHT22;8161;-33.910;151.156;2024-02-21T14:10:34;22.80;99.90
16114;DHT22;8161;-33.910;151.156;2024-02-21T14:13:01;22.70;99.90
16114;DHT22;8161;-33.910;151.156;2024-02-21T14:15:29;22.60;99.90
16114;DHT22;8161;-33.910;151.156;2024-02-21T14:17:57;22.60;99.90
16114;DHT22;8161;-33.910;151.156;2024-02-21T14:20:24;22.90;99.90
16114;DHT22;8161;-33.910;151.156;2024-02-21T14:22:51;22.60;99.90
16114;DHT22;8161;-33.910;151.156;2024-02-21T14:30:13;22.50;99.90
16114;DHT22;8161;-33.910;151.156;2024-02-21T14:32:45;22.80;99.90
16114;DHT22;8161;-33.910;151.156;2024-02-21T14:35:12;22.40;99.90
16114;DHT22;8161;-33.910;151.156;2024-02-21T14:37:40;22.40;99.90
16114;DHT22;8161;-33.910;151.156;2024-02-21T14:40:07;22.30;99.90
16114;DHT22;8161;-33.910;151.156;2024-02-21T14:42:35;22.50;99.90
16114;DHT22;8161;-33.910;151.156;2024-02-21T14:45:02;22.70;99.90
16114;DHT22;8161;-33.910;151.156;2024-02-21T14:47:32;22.60;99.90
16114;DHT22;8161;-33.910;151.156;2024-02-21T14:50:00;22.50;99.90
16114;DHT22;8161;-33.910;151.156;2024-02-21T14:52:28;22.40;99.90
16114;DHT22;8161;-33.910;151.156;2024-02-21T14:54:55;22.80;99.90
16114;DHT22;8161;-33.910;151.156;2024-02-21T14:57:23;22.50;99.90
16114;DHT22;8161;-33.910;151.156;2024-02-21T15:02:25;22.30;99.90
16114;DHT22;8161;-33.910;151.156;2024-02-21T15:04:54;22.60;99.90
16114;DHT22;8161;-33.910;151.156;2024-02-21T15:07:21;22.70;99.90
16114;DHT22;8161;-33.910;151.156;2024-02-21T15:09:53;22.30;99.90
16114;DHT22;8161;-33.910;151.156;2024-02-21T15:12:20;22.40;99.90
16114;DHT22;8161;-33.910;151.156;2024-02-21T15:14:52;22.80;99.90
16114;DHT22;8161;-33.910;151.156;2024-02-21T15:17:19;22.70;99.90
16114;DHT22;8161;-33.910;151.156;2024-02-21T15:19:47;22.60;99.90
16114;DHT22;8161;-33.910;151.156;2024-02-21T15:22:14;22.30;99.90
16114;DHT22;8161;-33.910;151.156;2024-02-21T15:24:42;22.40;99.90
16114;DHT22;8161;-33.910;151.156;2024-02-21T15:27:09;22.20;99.90
16114;DHT22;8161;-33.910;151.156;2024-02-21T15:29:37;22.40;99.90
16114;DHT22;8161;-33.910;151.156;2024-02-21T15:32:04;22.80;99.90
16114;DHT22;8161;-33.910;151.156;2024-02-21T15:34:32;22.20;99.90
16114;DHT22;8161;-33.910;151.156;2024-02-21T15:36:59;22.50;99.90
16114;DHT22;8161;-33.910;151.156;2024-02-21T15:39:26;22.30;99.90
16114;DHT22;8161;-33.910;151.156;2024-02-21T15:41:55;22.70;99.90
16114;DHT22;8161;-33.910;151.156;2024-02-21T15:44:25;22.70;99.90
16114;DHT22;8161;-33.910;151.156;2024-02-21T15:46:54;22.70;99.90
16114;DHT22;8161;-33.910;151.156;2024-02-21T15:49:21;22.40;99.90
16114;DHT22;8161;-33.910;151.156;2024-02-21T15:51:48;22.30;99.90
16114;DHT22;8161;-33.910;151.156;2024-02-21T15:54:16;22.50;99.90
16114;DHT22;8161;-33.910;151.156;2024-02-21T15:56:46;22.70;99.90
16114;DHT22;8161;-33.910;151.156;2024-02-21T15:59:13;22.70;99.90
16114;DHT22;8161;-33.910;151.156;2024-02-21T16:01:40;22.50;99.90
16114;DHT22;8161;-33.910;151.156;2024-02-21T16:04:09;22.40;99.90
16114;DHT22;8161;-33.910;151.156;2024-02-21T16:06:37;22.30;99.90
16114;DHT22;8161;-33.910;151.156;2024-02-21T16:09:04;22.40;99.90
16114;DHT22;8161;-33.910;151.156;2024-02-21T16:11:37;22.50;99.90
16114;DHT22;8161;-33.910;151.156;2024-02-21T16:16:33;22.90;99.90
16114;DHT22;8161;-33.910;151.156;2024-02-21T16:21:31;22.70;99.90
16114;DHT22;8161;-33.910;151.156;2024-02-21T16:23:58;22.50;99.90
16114;DHT22;8161;-33.910;151.156;2024-02-21T16:26:26;22.50;99.90
16114;DHT22;8161;-33.910;151.156;2024-02-21T16:28:53;22.10;99.90
16114;DHT22;8161;-33.910;151.156;2024-02-21T16:31:20;22.30;99.90
16114;DHT22;8161;-33.910;151.156;2024-02-21T16:33:47;22.00;99.90
16114;DHT22;8161;-33.910;151.156;2024-02-21T16:36:25;22.30;99.90
16114;DHT22;8161;-33.910;151.156;2024-02-21T16:38:53;22.70;99.90
16114;DHT22;8161;-33.910;151.156;2024-02-21T16:41:21;22.50;99.90
16114;DHT22;8161;-33.910;151.156;2024-02-21T16:43:50;22.70;99.90
16114;DHT22;8161;-33.910;151.156;2024-02-21T16:46:17;22.50;99.90
16114;DHT22;8161;-33.910;151.156;2024-02-21T16:48:46;22.50;99.90
16114;DHT22;8161;-33.910;151.156;2024-02-21T16:51:13;22.50;99.90
16114;DHT22;8161;-33.910;151.156;2024-02-21T16:56:07;22.60;99.90
16114;DHT22;8161;-33.910;151.156;2024-02-21T16:58:35;22.30;99.90
16114;DHT22;8161;-33.910;151.156;2024-02-21T17:03:37;22.60;99.90
16114;DHT22;8161;-33.910;151.156;2024-02-21T17:06:04;22.40;99.90
16114;DHT22;8161;-33.910;151.156;2024-02-21T17:08:32;22.20;99.90
16114;DHT22;8161;-33.910;151.156;2024-02-21T17:13:27;22.60;99.90
16114;DHT22;8161;-33.910;151.156;2024-02-21T17:15:55;22.50;99.90
16114;DHT22;8161;-33.910;151.156;2024-02-21T17:18:22;22.00;99.90
16114;DHT22;8161;-33.910;151.156;2024-02-21T17:20:50;22.50;99.90
16114;DHT22;8161;-33.910;151.156;2024-02-21T17:23:17;22.00;99.90
16114;DHT22;8161;-33.910;151.156;2024-02-21T17:25:44;22.00;99.90
16114;DHT22;8161;-33.910;151.156;2024-02-21T17:28:11;22.20;99.90
16114;DHT22;8161;-33.910;151.156;2024-02-21T17:30:39;22.30;99.90
16114;DHT22;8161;-33.910;151.156;2024-02-21T17:33:07;22.30;99.90
16114;DHT22;8161;-33.910;151.156;2024-02-21T17:35:34;22.20;99.90
16114;DHT22;8161;-33.910;151.156;2024-02-21T17:38:05;22.20;99.90
16114;DHT22;8161;-33.910;151.156;2024-02-21T17:40:33;22.10;99.90
16114;DHT22;8161;-33.910;151.156;2024-02-21T17:43:00;21.70;99.90
16114;DHT22;8161;-33.910;151.156;2024-02-21T17:45:28;21.80;99.90
16114;DHT22;8161;-33.910;151.156;2024-02-21T17:47:55;22.20;99.90
16114;DHT22;8161;-33.910;151.156;2024-02-21T17:50:22;22.00;99.90
16114;DHT22;8161;-33.910;151.156;2024-02-21T17:52:49;21.70;99.90
16114;DHT22;8161;-33.910;151.156;2024-02-21T17:57:44;22.10;99.90
16114;DHT22;8161;-33.910;151.156;2024-02-21T18:00:12;21.80;99.90
16114;DHT22;8161;-33.910;151.156;2024-02-21T18:02:40;22.10;99.90
16114;DHT22;8161;-33.910;151.156;2024-02-21T18:07:35;21.50;99.90
16114;DHT22;8161;-33.910;151.156;2024-02-21T18:10:02;21.70;99.90
16114;DHT22;8161;-33.910;151.156;2024-02-21T18:12:30;21.90;99.90
16114;DHT22;8161;-33.910;151.156;2024-02-21T18:17:25;21.60;99.90
16114;DHT22;8161;-33.910;151.156;2024-02-21T18:19:52;21.60;99.90
16114;DHT22;8161;-33.910;151.156;2024-02-21T18:22:19;21.40;99.90
16114;DHT22;8161;-33.910;151.156;2024-02-21T18:24:46;21.80;99.90
16114;DHT22;8161;-33.910;151.156;2024-02-21T18:27:13;21.80;99.90
16114;DHT22;8161;-33.910;151.156;2024-02-21T18:29:41;21.50;99.90
16114;DHT22;8161;-33.910;151.156;2024-02-21T18:32:08;21.80;99.90
16114;DHT22;8161;-33.910;151.156;2024-02-21T18:34:39;21.70;99.90
16114;DHT22;8161;-33.910;151.156;2024-02-21T18:37:06;21.80;99.90
16114;DHT22;8161;-33.910;151.156;2024-02-21T18:39:33;21.70;99.90
16114;DHT22;8161;-33.910;151.156;2024-02-21T18:42:01;21.50;99.90
16114;DHT22;8161;-33.910;151.156;2024-02-21T18:44:28;21.70;99.90